createdAt,value
2023-01-30T00:01:40.047Z,26.64
2023-01-30T00:04:06.696Z,25.65
2023-01-30T00:06:33.347Z,24.45
2023-01-30T00:08:59.976Z,24.96
2023-01-30T00:11:26.599Z,24.75
2023-01-30T00:13:53.303Z,24.98
2023-01-30T00:16:19.980Z,25.01
2023-01-30T00:18:46.638Z,24.12
2023-01-30T00:21:14.131Z,24.22
2023-01-30T00:23:40.808Z,23.65
2023-01-30T00:26:07.618Z,23.89
2023-01-30T00:28:34.251Z,25.04
2023-01-30T00:31:01.004Z,24.21
2023-01-30T00:33:27.894Z,24.59
2023-01-30T00:35:56.304Z,23.95
2023-01-30T00:38:23.187Z,24.39
2023-01-30T00:40:49.891Z,24.59
2023-01-30T00:43:17.829Z,24.42
2023-01-30T00:45:44.780Z,24.10
2023-01-30T00:48:11.427Z,23.51
2023-01-30T00:50:38.051Z,25.00
2023-01-30T00:53:04.941Z,23.99
2023-01-30T00:55:31.701Z,23.80
2023-01-30T00:57:58.304Z,24.01
2023-01-30T01:00:25.045Z,24.53
2023-01-30T01:02:51.745Z,24.81
2023-01-30T01:05:18.749Z,24.85
2023-01-30T01:07:45.573Z,25.79
2023-01-30T01:10:12.163Z,24.72
2023-01-30T01:12:38.971Z,25.52
2023-01-30T01:15:06.116Z,25.65
2023-01-30T01:17:32.947Z,26.19
2023-01-30T01:19:59.649Z,26.94
2023-01-30T01:22:26.280Z,26.27
2023-01-30T01:24:52.894Z,27.19
2023-01-30T01:27:19.623Z,26.81
2023-01-30T01:29:46.423Z,26.91
2023-01-30T01:32:13.132Z,27.55
2023-01-30T01:34:39.808Z,26.96
2023-01-30T01:37:06.493Z,26.61
2023-01-30T01:39:33.128Z,26.70
2023-01-30T01:41:59.766Z,26.59
2023-01-30T01:44:26.442Z,26.30
2023-01-30T01:46:57.455Z,26.56
2023-01-30T01:49:26.649Z,26.53
2023-01-30T01:52:01.931Z,25.22
2023-01-30T01:54:37.816Z,25.48
2023-01-30T01:57:06.840Z,26.80
2023-01-30T01:59:37.792Z,27.03
2023-01-30T02:02:07.707Z,25.85
2023-01-30T02:04:34.530Z,25.96
2023-01-30T02:07:01.279Z,27.19
2023-01-30T02:09:28.047Z,26.97
2023-01-30T02:11:56.321Z,26.26
2023-01-30T02:14:23.002Z,26.72
2023-01-30T02:16:49.654Z,27.20
2023-01-30T02:19:25.853Z,27.60
2023-01-30T02:22:01.588Z,27.32
2023-01-30T02:24:45.129Z,26.90
2023-01-30T02:27:30.584Z,27.25
2023-01-30T02:30:43.031Z,26.74
2023-01-30T02:33:21.339Z,28.33
2023-01-30T02:36:00.077Z,28.40
2023-01-30T02:38:33.688Z,28.25
2023-01-30T02:41:09.540Z,28.84
2023-01-30T02:44:05.606Z,28.09
2023-01-30T02:46:33.175Z,28.61
2023-01-30T02:49:09.513Z,29.04
2023-01-30T02:51:37.125Z,28.85
2023-01-30T02:54:06.062Z,29.43
2023-01-30T02:56:48.663Z,29.20
2023-01-30T02:59:17.005Z,28.26
2023-01-30T03:02:15.795Z,28.18
2023-01-30T03:04:58.376Z,27.49
2023-01-30T03:07:48.212Z,28.60
2023-01-30T03:10:17.218Z,28.29
2023-01-30T03:12:51.427Z,28.72
2023-01-30T03:15:27.976Z,29.32
2023-01-30T03:17:54.590Z,29.37
2023-01-30T03:20:21.325Z,29.52
2023-01-30T03:22:47.926Z,29.08
2023-01-30T03:25:20.059Z,30.12
2023-01-30T03:27:46.805Z,30.15
2023-01-30T03:30:13.744Z,28.99
2023-01-30T03:32:40.411Z,29.53
2023-01-30T03:35:07.271Z,29.31
2023-01-30T03:37:33.942Z,29.48
2023-01-30T03:40:00.603Z,28.56
2023-01-30T03:42:27.266Z,28.26
2023-01-30T03:44:53.908Z,28.39
2023-01-30T03:47:20.527Z,28.49
2023-01-30T03:49:47.192Z,28.72
2023-01-30T03:52:13.810Z,27.41
2023-01-30T03:54:40.429Z,28.60
2023-01-30T03:57:07.070Z,28.47
2023-01-30T03:59:33.739Z,28.74
2023-01-30T04:02:00.422Z,29.23
2023-01-30T04:04:27.081Z,28.35
2023-01-30T04:06:53.762Z,28.65
2023-01-30T04:09:20.635Z,27.97
2023-01-30T04:11:48.776Z,27.83
2023-01-30T04:14:15.384Z,28.59
2023-01-30T04:16:42.369Z,28.02
2023-01-30T04:19:09.028Z,27.69
2023-01-30T04:21:35.703Z,28.19
2023-01-30T04:24:02.408Z,28.40
2023-01-30T04:26:29.148Z,29.31
2023-01-30T04:28:55.828Z,28.80
2023-01-30T04:31:22.512Z,29.04
2023-01-30T04:33:49.216Z,29.27
2023-01-30T04:36:15.864Z,29.01
2023-01-30T04:38:42.539Z,28.71
2023-01-30T04:41:09.198Z,28.01
2023-01-30T04:43:36.063Z,28.97
2023-01-30T04:46:02.769Z,28.19
2023-01-30T04:48:29.590Z,28.88
2023-01-30T04:50:56.311Z,29.26
2023-01-30T04:53:23.337Z,28.81
2023-01-30T04:55:49.990Z,29.15
2023-01-30T04:58:17.064Z,29.85
2023-01-30T05:00:43.760Z,29.04
2023-01-30T05:03:10.417Z,29.06
2023-01-30T05:05:37.133Z,29.36
2023-01-30T05:08:03.952Z,29.34
2023-01-30T05:10:30.608Z,28.94
2023-01-30T05:12:57.294Z,30.30
2023-01-30T05:15:23.987Z,29.52
2023-01-30T05:17:50.775Z,29.94
2023-01-30T05:20:17.558Z,30.10
2023-01-30T05:22:44.206Z,29.78
2023-01-30T05:25:10.813Z,30.55
2023-01-30T05:27:37.481Z,29.91
2023-01-30T05:30:04.431Z,29.75
2023-01-30T05:32:31.193Z,30.31
2023-01-30T05:34:57.817Z,30.88
2023-01-30T05:37:24.596Z,30.51
2023-01-30T05:39:51.538Z,30.17
2023-01-30T05:42:18.188Z,29.93
2023-01-30T05:44:44.867Z,30.13
2023-01-30T05:47:11.543Z,30.20
2023-01-30T05:49:38.238Z,30.57
2023-01-30T05:52:05.201Z,30.77
2023-01-30T05:54:31.834Z,30.27
2023-01-30T05:56:58.509Z,32.00
2023-01-30T05:59:25.240Z,31.57
2023-01-30T06:01:52.113Z,32.26
2023-01-30T06:04:18.723Z,32.56
2023-01-30T06:06:45.496Z,32.95
2023-01-30T06:09:12.151Z,32.25
2023-01-30T06:11:38.887Z,32.50
2023-01-30T06:14:05.569Z,32.02
2023-01-30T06:16:32.236Z,32.42
2023-01-30T06:18:59.179Z,32.08
2023-01-30T06:21:25.990Z,31.80
2023-01-30T06:23:52.644Z,32.37
2023-01-30T06:26:19.466Z,32.76
2023-01-30T06:28:46.104Z,33.23
2023-01-30T06:31:12.822Z,32.39
2023-01-30T06:33:39.572Z,33.42
2023-01-30T06:36:06.528Z,32.81
2023-01-30T06:38:33.178Z,32.20
2023-01-30T06:40:59.923Z,32.29
2023-01-30T06:43:26.583Z,32.44
2023-01-30T06:45:53.458Z,32.89
2023-01-30T06:48:20.203Z,33.93
2023-01-30T06:50:47.131Z,33.31
2023-01-30T06:53:13.761Z,33.05
2023-01-30T06:55:40.521Z,32.96
2023-01-30T06:58:08.616Z,32.69
2023-01-30T07:00:35.526Z,33.53
2023-01-30T07:03:02.172Z,32.76
2023-01-30T07:05:28.975Z,33.02
2023-01-30T07:07:55.707Z,33.44
2023-01-30T07:10:22.401Z,33.92
2023-01-30T07:12:49.169Z,34.03
2023-01-30T07:15:16.188Z,33.62
2023-01-30T07:17:43.227Z,33.47
2023-01-30T07:20:10.726Z,33.00
2023-01-30T07:22:37.558Z,33.27
2023-01-30T07:25:04.820Z,32.85
2023-01-30T07:27:33.957Z,31.31
2023-01-30T07:30:00.697Z,31.64
2023-01-30T07:32:27.590Z,30.86
2023-01-30T07:34:54.255Z,31.49
2023-01-30T07:37:20.881Z,31.65
2023-01-30T07:39:47.523Z,31.68
2023-01-30T07:42:14.327Z,31.54
2023-01-30T07:44:41.396Z,32.40
2023-01-30T07:47:08.202Z,32.40
2023-01-30T07:49:34.900Z,31.82
2023-01-30T07:52:01.609Z,32.79
2023-01-30T07:54:28.230Z,32.10
2023-01-30T07:56:55.030Z,33.14
2023-01-30T07:59:21.684Z,32.83
2023-01-30T08:01:48.333Z,34.18
2023-01-30T08:04:15.032Z,34.18
2023-01-30T08:06:41.821Z,34.95
2023-01-30T08:09:08.682Z,34.37
2023-01-30T08:11:35.440Z,34.11
2023-01-30T08:14:02.485Z,33.47
2023-01-30T08:16:29.210Z,34.87
2023-01-30T08:18:55.872Z,33.47
2023-01-30T08:21:22.814Z,33.97
2023-01-30T08:23:49.476Z,33.53
2023-01-30T08:26:16.183Z,34.07
2023-01-30T08:28:42.872Z,34.09
2023-01-30T08:31:13.218Z,33.87
2023-01-30T08:33:42.270Z,39.88
2023-01-30T08:36:09.222Z,33.37
2023-01-30T08:38:35.993Z,34.04
2023-01-30T08:41:07.063Z,33.21
2023-01-30T08:43:34.702Z,32.95
2023-01-30T08:46:01.421Z,33.14
2023-01-30T08:48:29.869Z,33.55
2023-01-30T08:50:58.536Z,33.77
2023-01-30T08:53:25.175Z,34.36
2023-01-30T08:55:52.497Z,33.23
2023-01-30T08:58:21.962Z,33.69
2023-01-30T09:00:48.925Z,31.99
2023-01-30T09:03:15.592Z,31.54
2023-01-30T09:05:42.519Z,31.93
2023-01-30T09:08:09.150Z,31.93
2023-01-30T09:10:36.015Z,32.38
2023-01-30T09:13:02.941Z,32.10
2023-01-30T09:15:29.648Z,31.64
2023-01-30T09:17:56.263Z,29.94
2023-01-30T09:20:22.909Z,27.14
2023-01-30T09:22:49.554Z,26.92
2023-01-30T09:25:16.170Z,27.12
2023-01-30T09:27:42.905Z,26.71
2023-01-30T09:30:10.093Z,26.76
2023-01-30T09:32:36.757Z,26.96
2023-01-30T09:35:04.375Z,27.96
2023-01-30T09:37:31.077Z,28.10
2023-01-30T09:39:57.751Z,29.80
2023-01-30T09:42:24.323Z,29.87
2023-01-30T09:45:21.601Z,29.58
2023-01-30T09:48:06.390Z,30.70
2023-01-30T09:51:01.495Z,31.22
2023-01-30T09:53:34.872Z,31.22
2023-01-30T09:56:01.524Z,30.72
2023-01-30T09:58:41.669Z,30.57
2023-01-30T10:01:10.576Z,30.66
2023-01-30T10:03:41.224Z,29.66
2023-01-30T10:06:11.790Z,31.81
2023-01-30T10:08:44.535Z,30.61
2023-01-30T10:11:13.999Z,31.75
2023-01-30T10:14:10.874Z,32.57
2023-01-30T10:17:00.213Z,33.07
2023-01-30T10:19:38.968Z,32.05
2023-01-30T10:22:21.628Z,33.35
2023-01-30T10:25:14.455Z,31.20
2023-01-30T10:27:53.222Z,32.67
2023-01-30T10:30:20.224Z,32.55
2023-01-30T10:32:59.085Z,32.30
2023-01-30T10:35:29.784Z,33.72
2023-01-30T10:38:22.022Z,32.02
2023-01-30T10:40:51.566Z,30.61
2023-01-30T10:43:20.952Z,29.36
2023-01-30T10:46:21.068Z,30.01
2023-01-30T10:49:09.124Z,30.25
2023-01-30T10:52:03.971Z,28.30
2023-01-30T10:54:54.004Z,29.60
2023-01-30T10:57:35.746Z,29.86
2023-01-30T11:00:17.536Z,29.35
2023-01-30T11:02:58.457Z,27.58
2023-01-30T11:05:25.918Z,27.62
2023-01-30T11:07:52.558Z,27.81
2023-01-30T11:10:24.364Z,27.52
2023-01-30T11:12:55.845Z,27.82
2023-01-30T11:15:23.533Z,27.95
2023-01-30T11:17:50.623Z,27.18
2023-01-30T11:20:18.919Z,27.49
2023-01-30T11:23:05.865Z,28.29
2023-01-30T11:25:32.635Z,28.67
2023-01-30T11:28:03.543Z,27.32
2023-01-30T11:30:33.611Z,27.71
2023-01-30T11:33:13.752Z,28.62
2023-01-30T11:35:47.424Z,27.64
2023-01-30T11:38:23.551Z,27.94
2023-01-30T11:40:50.215Z,27.74
2023-01-30T11:43:16.890Z,27.81
2023-01-30T11:45:49.438Z,27.46
2023-01-30T11:48:33.769Z,28.52
2023-01-30T11:51:12.580Z,28.75
2023-01-30T11:53:41.645Z,28.36
2023-01-30T11:56:17.525Z,28.18
2023-01-30T11:58:44.204Z,27.77
2023-01-30T12:01:10.861Z,29.40
2023-01-30T12:03:44.378Z,28.40
2023-01-30T12:06:11.018Z,28.51
2023-01-30T12:08:42.312Z,28.30
2023-01-30T12:11:28.549Z,28.63
2023-01-30T12:14:19.269Z,28.03
2023-01-30T12:16:57.848Z,27.18
2023-01-30T12:20:07.356Z,29.31
2023-01-30T12:22:36.598Z,28.81
2023-01-30T12:25:21.439Z,28.82
2023-01-30T12:28:02.446Z,29.43
2023-01-30T12:30:49.324Z,29.19
2023-01-30T12:33:16.053Z,28.83
2023-01-30T12:35:52.233Z,29.56
2023-01-30T12:38:48.184Z,29.20
2023-01-30T12:41:28.777Z,28.03
2023-01-30T12:44:21.518Z,28.41
2023-01-30T12:46:57.039Z,27.89
2023-01-30T12:49:29.586Z,27.70
2023-01-30T12:52:03.696Z,27.33
2023-01-30T12:55:06.759Z,27.88
2023-01-30T12:58:00.831Z,27.57
2023-01-30T13:00:40.888Z,28.03
2023-01-30T13:03:36.243Z,27.81
2023-01-30T13:06:18.060Z,27.78
2023-01-30T13:08:47.422Z,27.36
2023-01-30T13:11:47.908Z,28.29
2023-01-30T13:14:36.112Z,27.73
2023-01-30T13:17:05.448Z,28.21
2023-01-30T13:19:41.235Z,28.37
2023-01-30T13:22:39.487Z,27.31
2023-01-30T13:25:24.206Z,26.66
2023-01-30T13:27:56.265Z,26.40
2023-01-30T13:30:22.993Z,27.10
2023-01-30T13:32:50.390Z,27.46
2023-01-30T13:35:21.845Z,27.36
2023-01-30T13:37:48.936Z,27.47
2023-01-30T13:40:19.741Z,26.92
2023-01-30T13:42:46.571Z,27.12
2023-01-30T13:45:24.288Z,27.04
2023-01-30T13:48:29.307Z,26.79
2023-01-30T13:51:20.785Z,27.00
2023-01-30T13:53:58.524Z,27.46
2023-01-30T13:56:43.385Z,27.36
2023-01-30T13:59:19.170Z,26.91
2023-01-30T14:02:01.051Z,27.31
2023-01-30T14:04:30.315Z,28.21
2023-01-30T14:07:19.041Z,27.18
2023-01-30T14:09:48.209Z,28.05
2023-01-30T14:12:19.680Z,28.24
2023-01-30T14:15:05.107Z,27.71
2023-01-30T14:17:31.942Z,27.78
2023-01-30T14:20:11.290Z,28.61
2023-01-30T14:22:47.715Z,26.71
2023-01-30T14:25:23.247Z,26.50
2023-01-30T14:27:50.538Z,27.40
2023-01-30T14:30:45.219Z,26.93
2023-01-30T14:33:21.047Z,27.00
2023-01-30T14:35:48.727Z,27.40
2023-01-30T14:38:19.291Z,26.97
2023-01-30T14:40:47.629Z,27.04
2023-01-30T14:43:14.151Z,28.21
2023-01-30T14:45:57.147Z,27.01
2023-01-30T14:48:29.607Z,28.79
2023-01-30T14:51:24.991Z,27.98
2023-01-30T14:54:01.747Z,27.98
2023-01-30T14:56:53.242Z,28.36
2023-01-30T14:59:27.718Z,27.58
2023-01-30T15:01:57.044Z,27.72
2023-01-30T15:04:24.218Z,28.29
2023-01-30T15:06:50.899Z,27.45
2023-01-30T15:09:18.597Z,27.59
2023-01-30T15:11:46.217Z,27.60
2023-01-30T15:14:33.189Z,27.51
2023-01-30T15:17:15.421Z,27.78
2023-01-30T15:20:07.002Z,27.58
2023-01-30T15:23:04.843Z,27.35
2023-01-30T15:25:46.839Z,28.30
2023-01-30T15:28:27.805Z,28.32
2023-01-30T15:31:14.356Z,28.56
2023-01-30T15:33:45.514Z,27.82
2023-01-30T15:36:26.520Z,28.66
2023-01-30T15:39:04.250Z,28.10
2023-01-30T15:41:32.736Z,28.30
2023-01-30T15:44:57.060Z,28.68
2023-01-30T15:47:35.614Z,29.48
2023-01-30T15:50:09.008Z,28.32
2023-01-30T15:52:40.308Z,29.02
2023-01-30T15:55:07.365Z,28.06
2023-01-30T15:57:35.791Z,28.23
2023-01-30T16:00:04.554Z,28.42
2023-01-30T16:02:32.726Z,28.05
2023-01-30T16:05:19.548Z,27.95
2023-01-30T16:07:47.472Z,28.35
2023-01-30T16:10:17.901Z,28.17
2023-01-30T16:12:44.498Z,28.74
2023-01-30T16:15:24.889Z,28.26
2023-01-30T16:17:58.315Z,28.17
2023-01-30T16:20:24.944Z,27.78
2023-01-30T16:22:51.582Z,27.80
2023-01-30T16:25:21.738Z,27.90
2023-01-30T16:27:48.675Z,28.24
2023-01-30T16:30:20.508Z,28.20
2023-01-30T16:32:47.499Z,28.36
2023-01-30T16:35:26.880Z,28.24
2023-01-30T16:37:55.226Z,28.08
2023-01-30T16:40:25.337Z,27.18
2023-01-30T16:42:55.907Z,26.81
2023-01-30T16:45:34.680Z,28.11
2023-01-30T16:48:16.657Z,27.81
2023-01-30T16:50:46.957Z,27.71
2023-01-30T16:53:14.637Z,28.07
2023-01-30T16:55:56.989Z,27.51
2023-01-30T16:58:23.635Z,27.95
2023-01-30T17:00:50.823Z,27.42
2023-01-30T17:03:24.154Z,27.30
2023-01-30T17:05:50.905Z,27.94
2023-01-30T17:08:32.975Z,27.64
2023-01-30T17:11:03.129Z,27.07
2023-01-30T17:13:37.392Z,28.05
2023-01-30T17:16:25.162Z,27.93
2023-01-30T17:18:53.151Z,26.99
2023-01-30T17:21:20.383Z,26.58
2023-01-30T17:23:52.741Z,27.57
2023-01-30T17:26:19.561Z,27.81
2023-01-30T17:28:46.397Z,26.99
2023-01-30T17:31:13.676Z,27.32
2023-01-30T17:33:40.448Z,26.61
2023-01-30T17:36:19.709Z,27.12
2023-01-30T17:38:47.894Z,26.74
2023-01-30T17:41:25.710Z,27.16
2023-01-30T17:43:52.342Z,27.95
2023-01-30T17:46:19.104Z,27.27
2023-01-30T17:48:45.819Z,27.15
2023-01-30T17:51:12.479Z,27.84
2023-01-30T17:53:39.180Z,26.97
2023-01-30T17:56:10.081Z,26.63
2023-01-30T17:58:36.738Z,26.63
2023-01-30T18:01:03.359Z,26.48
2023-01-30T18:03:29.994Z,27.57
2023-01-30T18:05:56.691Z,26.14
2023-01-30T18:08:23.310Z,26.39
2023-01-30T18:10:49.905Z,27.14
2023-01-30T18:13:16.520Z,26.32
2023-01-30T18:15:43.193Z,26.77
2023-01-30T18:18:11.553Z,27.54
2023-01-30T18:20:38.159Z,26.78
2023-01-30T18:23:04.851Z,26.85
2023-01-30T18:25:31.470Z,28.35
2023-01-30T18:27:58.160Z,28.79
2023-01-30T18:30:24.835Z,29.40
2023-01-30T18:32:53.920Z,29.56
2023-01-30T18:35:22.099Z,28.74
2023-01-30T18:37:48.781Z,29.89
2023-01-30T18:40:15.485Z,28.63
2023-01-30T18:42:42.080Z,28.21
2023-01-30T18:45:09.071Z,27.52
2023-01-30T18:47:35.810Z,27.53
2023-01-30T18:50:02.473Z,29.27
2023-01-30T18:52:29.132Z,28.59
2023-01-30T18:54:55.775Z,28.19
2023-01-30T18:57:22.519Z,29.11
2023-01-30T18:59:49.176Z,28.65
2023-01-30T19:02:15.838Z,27.92
2023-01-30T19:04:42.536Z,28.12
2023-01-30T19:07:09.158Z,29.91
2023-01-30T19:09:35.791Z,30.17
2023-01-30T19:12:02.492Z,31.17
2023-01-30T19:14:29.168Z,30.65
2023-01-30T19:16:57.272Z,31.40
2023-01-30T19:19:23.974Z,30.65
2023-01-30T19:21:53.597Z,30.00
2023-01-30T19:24:20.231Z,31.93
2023-01-30T19:26:47.521Z,33.10
2023-01-30T19:29:14.147Z,33.25
2023-01-30T19:31:41.052Z,32.80
2023-01-30T19:34:07.896Z,31.16
2023-01-30T19:36:35.156Z,30.52
2023-01-30T19:39:02.200Z,33.74
2023-01-30T19:41:29.913Z,33.40
2023-01-30T19:43:57.198Z,33.29
2023-01-30T19:46:23.953Z,32.63
2023-01-30T19:48:50.740Z,32.05
2023-01-30T19:51:30.586Z,32.23
2023-01-30T19:53:58.900Z,31.97
2023-01-30T19:56:26.273Z,30.99
2023-01-30T19:58:54.668Z,32.25
2023-01-30T20:01:22.131Z,32.89
2023-01-30T20:03:48.860Z,32.01
2023-01-30T20:06:21.976Z,32.95
2023-01-30T20:08:49.536Z,33.68
2023-01-30T20:11:17.452Z,33.47
2023-01-30T20:13:44.927Z,31.60
2023-01-30T20:16:13.261Z,32.83
2023-01-30T20:18:40.255Z,33.72
2023-01-30T20:21:11.062Z,33.17
2023-01-30T20:23:38.243Z,33.62
2023-01-30T20:26:06.023Z,33.64
2023-01-30T20:28:33.112Z,33.32
2023-01-30T20:31:00.059Z,32.69
2023-01-30T20:33:26.977Z,33.38
2023-01-30T20:35:53.681Z,33.60
2023-01-30T20:38:20.348Z,33.53
2023-01-30T20:40:46.999Z,35.49
2023-01-30T20:43:13.749Z,35.97
2023-01-30T20:45:40.461Z,36.24
2023-01-30T20:48:07.171Z,36.33
2023-01-30T20:50:33.827Z,35.31
2023-01-30T20:53:00.480Z,36.43
2023-01-30T20:55:28.149Z,36.30
2023-01-30T20:57:54.781Z,36.73
2023-01-30T21:00:21.542Z,37.91
2023-01-30T21:02:51.244Z,39.40
2023-01-30T21:05:18.058Z,38.60
2023-01-30T21:07:44.870Z,39.24
2023-01-30T21:10:11.526Z,39.51
2023-01-30T21:12:38.214Z,39.35
2023-01-30T21:15:05.178Z,39.08
2023-01-30T21:17:31.883Z,38.72
2023-01-30T21:19:58.493Z,37.85
2023-01-30T21:22:25.132Z,35.09
2023-01-30T21:24:51.874Z,36.28
2023-01-30T21:27:18.493Z,34.71
2023-01-30T21:29:45.155Z,34.52
2023-01-30T21:32:11.820Z,34.82
2023-01-30T21:34:39.071Z,34.48
2023-01-30T21:37:05.915Z,33.74
2023-01-30T21:39:32.752Z,32.02
2023-01-30T21:41:59.609Z,31.90
2023-01-30T21:44:28.278Z,32.05
2023-01-30T21:46:54.932Z,31.21
2023-01-30T21:49:21.626Z,30.40
2023-01-30T21:51:49.321Z,31.95
2023-01-30T21:54:16.822Z,31.27
2023-01-30T21:56:43.532Z,30.73
2023-01-30T21:59:11.208Z,31.68
2023-01-30T22:01:38.079Z,30.98
2023-01-30T22:04:06.310Z,29.92
2023-01-30T22:06:33.140Z,28.42
2023-01-30T22:09:00.584Z,30.48
2023-01-30T22:11:27.455Z,30.44
2023-01-30T22:13:54.746Z,29.75
2023-01-30T22:16:24.169Z,29.92
2023-01-30T22:18:55.305Z,29.90
2023-01-30T22:21:22.937Z,29.71
2023-01-30T22:23:50.419Z,29.66
2023-01-30T22:26:18.210Z,29.00
2023-01-30T22:28:45.108Z,28.80
2023-01-30T22:31:21.628Z,28.15
2023-01-30T22:33:51.138Z,27.92
2023-01-30T22:36:17.876Z,27.69
2023-01-30T22:38:45.359Z,26.07
2023-01-30T22:41:15.144Z,24.52
2023-01-30T22:43:47.207Z,24.13
2023-01-30T22:46:14.356Z,19.63
2023-01-30T22:48:41.622Z,23.55
2023-01-30T22:51:19.259Z,26.53
2023-01-30T22:53:59.237Z,21.22
2023-01-30T22:56:27.548Z,21.26
2023-01-30T22:58:54.144Z,20.82
2023-01-30T23:01:22.470Z,20.01
2023-01-30T23:03:59.090Z,19.74
2023-01-30T23:06:26.407Z,18.98
2023-01-30T23:08:53.658Z,17.95
2023-01-30T23:11:23.280Z,18.12
2023-01-30T23:13:51.330Z,13.02
2023-01-30T23:16:19.463Z,12.08
2023-01-30T23:18:46.217Z,11.63
2023-01-30T23:21:13.607Z,12.86
2023-01-30T23:23:40.293Z,15.77
2023-01-30T23:26:07.184Z,15.61
2023-01-30T23:28:34.398Z,14.75
2023-01-30T23:31:11.515Z,15.60
2023-01-30T23:33:38.281Z,17.06
2023-01-30T23:36:10.286Z,14.95
2023-01-30T23:38:37.682Z,14.33
2023-01-30T23:41:05.134Z,12.66
2023-01-30T23:43:31.883Z,11.04
2023-01-30T23:45:58.593Z,7.72
2023-01-30T23:48:25.257Z,6.22
2023-01-30T23:50:51.916Z,5.79
2023-01-30T23:53:18.621Z,5.64
2023-01-30T23:55:51.962Z,5.29
2023-01-30T23:58:18.602Z,5.22
